sensor_id;sensor_type;location;lat;lon;timestamp;pressure;altitude;pressure_sealevel;temperature;humidity
1371;BME280;14306;49.942;11.570;2022-11-06T00:00:04;97943.41;;;7.27;92.49
1371;BME280;14306;49.942;11.570;2022-11-06T00:02:30;97946.63;;;7.44;91.71
1371;BME280;14306;49.942;11.570;2022-11-06T00:04:56;97939.09;;;7.36;92.72
1371;BME280;14306;49.942;11.570;2022-11-06T00:07:44;97919.94;;;7.32;92.29
1371;BME280;14306;49.942;11.570;2022-11-06T00:10:12;97940.41;;;7.43;92.47
1371;BME280;14306;49.942;11.570;2022-11-06T00:12:37;97935.59;;;7.40;91.96
1371;BME280;14306;49.942;11.570;2022-11-06T00:15:03;97934.22;;;7.33;93.02
1371;BME280;14306;49.942;11.570;2022-11-06T00:17:29;97929.66;;;7.33;92.57
1371;BME280;14306;49.942;11.570;2022-11-06T00:19:54;97931.81;;;7.31;93.08
1371;BME280;14306;49.942;11.570;2022-11-06T00:22:19;97930.47;;;7.29;93.27
1371;BME280;14306;49.942;11.570;2022-11-06T00:24:45;97931.53;;;7.28;92.90
1371;BME280;14306;49.942;11.570;2022-11-06T00:27:10;97938.25;;;7.20;92.56
1371;BME280;14306;49.942;11.570;2022-11-06T00:29:35;97934.75;;;7.15;92.89
1371;BME280;14306;49.942;11.570;2022-11-06T00:32:01;97935.28;;;7.02;92.77
1371;BME280;14306;49.942;11.570;2022-11-06T00:34:26;97926.94;;;7.03;93.05
1371;BME280;14306;49.942;11.570;2022-11-06T00:36:52;97931.81;;;7.06;93.36
1371;BME280;14306;49.942;11.570;2022-11-06T00:39:17;97925.06;;;7.04;91.92
1371;BME280;14306;49.942;11.570;2022-11-06T00:41:42;97932.88;;;6.95;91.86
1371;BME280;14306;49.942;11.570;2022-11-06T00:44:08;97934.47;;;6.76;92.59
1371;BME280;14306;49.942;11.570;2022-11-06T00:46:35;97924.72;;;6.55;92.16
1371;BME280;14306;49.942;11.570;2022-11-06T00:49:00;97921.19;;;6.50;92.61
1371;BME280;14306;49.942;11.570;2022-11-06T00:51:31;97923.56;;;6.36;92.53
1371;BME280;14306;49.942;11.570;2022-11-06T00:54:01;97933.22;;;6.27;92.72
1371;BME280;14306;49.942;11.570;2022-11-06T00:56:28;97929.16;;;6.15;93.04
1371;BME280;14306;49.942;11.570;2022-11-06T00:58:54;97939.38;;;6.23;93.32
1371;BME280;14306;49.942;11.570;2022-11-06T01:01:22;97939.13;;;6.19;93.40
1371;BME280;14306;49.942;11.570;2022-11-06T01:03:54;97938.56;;;6.17;93.08
1371;BME280;14306;49.942;11.570;2022-11-06T01:06:21;97946.34;;;6.14;93.17
1371;BME280;14306;49.942;11.570;2022-11-06T01:08:47;97949.06;;;6.19;93.47
1371;BME280;14306;49.942;11.570;2022-11-06T01:11:26;97957.34;;;6.07;92.21
1371;BME280;14306;49.942;11.570;2022-11-06T01:13:54;97960.88;;;6.13;92.28
1371;BME280;14306;49.942;11.570;2022-11-06T01:16:20;97956.00;;;6.05;92.55
1371;BME280;14306;49.942;11.570;2022-11-06T01:18:46;97940.97;;;6.09;92.93
1371;BME280;14306;49.942;11.570;2022-11-06T01:21:15;97955.00;;;6.21;93.57
1371;BME280;14306;49.942;11.570;2022-11-06T01:23:41;97961.81;;;6.48;93.12
1371;BME280;14306;49.942;11.570;2022-11-06T01:26:07;97962.69;;;6.64;93.04
1371;BME280;14306;49.942;11.570;2022-11-06T01:28:34;97954.66;;;6.74;93.15
1371;BME280;14306;49.942;11.570;2022-11-06T01:31:08;97959.72;;;6.70;91.92
1371;BME280;14306;49.942;11.570;2022-11-06T01:33:34;97958.38;;;6.68;92.88
1371;BME280;14306;49.942;11.570;2022-11-06T01:35:59;97958.38;;;6.63;93.67
1371;BME280;14306;49.942;11.570;2022-11-06T01:38:25;97956.50;;;6.68;92.62
1371;BME280;14306;49.942;11.570;2022-11-06T01:40:51;97956.97;;;6.50;93.12
1371;BME280;14306;49.942;11.570;2022-11-06T01:46:07;97945.09;;;6.36;92.63
1371;BME280;14306;49.942;11.570;2022-11-06T01:48:32;97946.41;;;6.24;92.07
1371;BME280;14306;49.942;11.570;2022-11-06T01:50:58;97943.94;;;6.12;92.84
1371;BME280;14306;49.942;11.570;2022-11-06T01:53:24;97949.56;;;6.16;92.11
1371;BME280;14306;49.942;11.570;2022-11-06T01:55:53;97942.28;;;6.06;92.45
1371;BME280;14306;49.942;11.570;2022-11-06T01:58:20;97948.56;;;6.27;92.34
1371;BME280;14306;49.942;11.570;2022-11-06T02:00:47;97938.63;;;6.27;92.14
1371;BME280;14306;49.942;11.570;2022-11-06T02:03:13;97938.56;;;6.17;91.84
1371;BME280;14306;49.942;11.570;2022-11-06T02:05:39;97939.59;;;6.06;93.55
1371;BME280;14306;49.942;11.570;2022-11-06T02:08:07;97932.09;;;6.13;94.37
1371;BME280;14306;49.942;11.570;2022-11-06T02:10:34;97925.94;;;6.13;93.30
1371;BME280;14306;49.942;11.570;2022-11-06T02:18:21;97925.03;;;6.02;93.30
1371;BME280;14306;49.942;11.570;2022-11-06T02:21:23;97923.69;;;6.00;93.18
1371;BME280;14306;49.942;11.570;2022-11-06T02:29:20;97928.09;;;5.74;92.58
1371;BME280;14306;49.942;11.570;2022-11-06T02:31:48;97928.31;;;5.63;92.60
1371;BME280;14306;49.942;11.570;2022-11-06T02:34:17;97930.69;;;5.54;92.55
1371;BME280;14306;49.942;11.570;2022-11-06T02:36:55;97917.78;;;5.56;94.21
1371;BME280;14306;49.942;11.570;2022-11-06T02:39:25;97921.09;;;5.68;92.94
1371;BME280;14306;49.942;11.570;2022-11-06T02:41:53;97916.72;;;5.57;92.51
1371;BME280;14306;49.942;11.570;2022-11-06T02:44:23;97922.25;;;5.41;92.04
1371;BME280;14306;49.942;11.570;2022-11-06T02:46:52;97914.72;;;5.38;92.94
1371;BME280;14306;49.942;11.570;2022-11-06T02:52:11;97905.31;;;5.40;92.41
1371;BME280;14306;49.942;11.570;2022-11-06T02:54:43;97914.69;;;5.33;93.41
1371;BME280;14306;49.942;11.570;2022-11-06T02:57:12;97907.47;;;5.38;93.61
1371;BME280;14306;49.942;11.570;2022-11-06T03:00:00;97910.06;;;5.23;93.93
1371;BME280;14306;49.942;11.570;2022-11-06T03:02:38;97911.31;;;5.16;93.25
1371;BME280;14306;49.942;11.570;2022-11-06T03:05:11;97910.44;;;5.05;93.61
1371;BME280;14306;49.942;11.570;2022-11-06T03:10:39;97911.50;;;5.04;92.96
1371;BME280;14306;49.942;11.570;2022-11-06T03:13:21;97907.78;;;5.10;93.29
1371;BME280;14306;49.942;11.570;2022-11-06T03:18:24;97915.75;;;4.69;92.55
1371;BME280;14306;49.942;11.570;2022-11-06T03:21:01;97897.53;;;4.71;92.92
1371;BME280;14306;49.942;11.570;2022-11-06T03:23:40;97903.91;;;4.65;92.69
1371;BME280;14306;49.942;11.570;2022-11-06T03:26:17;97904.16;;;4.63;93.39
1371;BME280;14306;49.942;11.570;2022-11-06T03:28:57;97904.97;;;4.64;93.34
1371;BME280;14306;49.942;11.570;2022-11-06T03:31:29;97898.69;;;4.80;93.10
1371;BME280;14306;49.942;11.570;2022-11-06T03:34:06;97890.06;;;4.78;92.90
1371;BME280;14306;49.942;11.570;2022-11-06T03:36:43;97890.06;;;4.78;92.12
1371;BME280;14306;49.942;11.570;2022-11-06T03:39:16;97885.16;;;4.70;93.37
1371;BME280;14306;49.942;11.570;2022-11-06T03:41:48;97880.88;;;4.69;92.64
1371;BME280;14306;49.942;11.570;2022-11-06T03:44:20;97876.66;;;4.78;93.99
1371;BME280;14306;49.942;11.570;2022-11-06T03:46:56;97882.44;;;4.65;93.76
1371;BME280;14306;49.942;11.570;2022-11-06T03:49:30;97874.91;;;4.62;93.95
1371;BME280;14306;49.942;11.570;2022-11-06T03:52:32;97874.66;;;4.63;93.27
1371;BME280;14306;49.942;11.570;2022-11-06T03:55:09;97880.84;;;4.64;94.62
1371;BME280;14306;49.942;11.570;2022-11-06T04:00:09;97873.59;;;4.64;93.83
1371;BME280;14306;49.942;11.570;2022-11-06T04:02:38;97862.25;;;4.57;94.32
1371;BME280;14306;49.942;11.570;2022-11-06T04:05:13;97871.16;;;4.63;94.16
1371;BME280;14306;49.942;11.570;2022-11-06T04:07:43;97876.22;;;4.59;93.83
1371;BME280;14306;49.942;11.570;2022-11-06T04:10:34;97882.09;;;4.56;93.47
1371;BME280;14306;49.942;11.570;2022-11-06T04:13:20;97869.78;;;4.60;93.47
1371;BME280;14306;49.942;11.570;2022-11-06T04:16:26;97875.63;;;4.52;93.98
1371;BME280;14306;49.942;11.570;2022-11-06T04:18:53;97859.75;;;4.46;93.48
1371;BME280;14306;49.942;11.570;2022-11-06T04:21:27;97875.25;;;4.44;93.85
1371;BME280;14306;49.942;11.570;2022-11-06T04:27:25;97860.69;;;4.35;93.63
1371;BME280;14306;49.942;11.570;2022-11-06T04:30:11;97873.00;;;4.31;92.94
1371;BME280;14306;49.942;11.570;2022-11-06T04:39:10;97867.47;;;4.15;93.93
1371;BME280;14306;49.942;11.570;2022-11-06T04:44:02;97872.66;;;4.00;94.47
1371;BME280;14306;49.942;11.570;2022-11-06T04:46:56;97873.53;;;4.06;93.71
1371;BME280;14306;49.942;11.570;2022-11-06T04:49:23;97863.91;;;4.10;94.42
1371;BME280;14306;49.942;11.570;2022-11-06T04:51:50;97870.41;;;4.14;94.71
1371;BME280;14306;49.942;11.570;2022-11-06T04:54:16;97871.38;;;4.30;95.80
1371;BME280;14306;49.942;11.570;2022-11-06T04:56:41;97872.00;;;4.37;95.11
1371;BME280;14306;49.942;11.570;2022-11-06T04:59:11;97866.94;;;4.40;94.66
1371;BME280;14306;49.942;11.570;2022-11-06T05:01:38;97868.50;;;4.36;93.47
1371;BME280;14306;49.942;11.570;2022-11-06T05:04:03;97865.41;;;4.22;94.27
1371;BME280;14306;49.942;11.570;2022-11-06T05:06:29;97862.09;;;4.15;93.47
1371;BME280;14306;49.942;11.570;2022-11-06T05:08:54;97867.09;;;4.07;93.76
1371;BME280;14306;49.942;11.570;2022-11-06T05:11:21;97865.06;;;3.92;92.67
1371;BME280;14306;49.942;11.570;2022-11-06T05:13:47;97858.16;;;3.75;92.95
1371;BME280;14306;49.942;11.570;2022-11-06T05:16:12;97862.78;;;3.58;93.54
1371;BME280;14306;49.942;11.570;2022-11-06T05:18:37;97848.41;;;3.47;94.06
1371;BME280;14306;49.942;11.570;2022-11-06T05:21:03;97864.00;;;3.50;93.80
1371;BME280;14306;49.942;11.570;2022-11-06T05:23:47;97867.50;;;3.51;93.66
1371;BME280;14306;49.942;11.570;2022-11-06T05:26:13;97861.06;;;3.52;93.88
1371;BME280;14306;49.942;11.570;2022-11-06T05:28:38;97862.94;;;3.51;94.12
1371;BME280;14306;49.942;11.570;2022-11-06T05:31:04;97862.63;;;3.69;93.72
1371;BME280;14306;49.942;11.570;2022-11-06T05:33:30;97860.34;;;3.56;93.55
1371;BME280;14306;49.942;11.570;2022-11-06T05:35:56;97852.59;;;3.60;93.42
1371;BME280;14306;49.942;11.570;2022-11-06T05:38:25;97857.47;;;3.63;93.05
1371;BME280;14306;49.942;11.570;2022-11-06T05:40:50;97860.88;;;3.37;93.56
1371;BME280;14306;49.942;11.570;2022-11-06T05:43:16;97865.31;;;3.48;93.68
1371;BME280;14306;49.942;11.570;2022-11-06T05:45:41;97853.28;;;3.50;93.75
1371;BME280;14306;49.942;11.570;2022-11-06T05:48:06;97860.22;;;3.68;93.75
1371;BME280;14306;49.942;11.570;2022-11-06T05:50:32;97858.16;;;3.53;94.13
1371;BME280;14306;49.942;11.570;2022-11-06T05:52:58;97858.63;;;3.50;94.83
1371;BME280;14306;49.942;11.570;2022-11-06T05:55:24;97860.19;;;3.89;94.11
1371;BME280;14306;49.942;11.570;2022-11-06T05:57:49;97857.06;;;4.19;94.36
1371;BME280;14306;49.942;11.570;2022-11-06T06:00:15;97855.44;;;4.45;93.51
1371;BME280;14306;49.942;11.570;2022-11-06T06:02:41;97858.47;;;4.53;93.10
1371;BME280;14306;49.942;11.570;2022-11-06T06:05:07;97849.75;;;4.68;93.53
1371;BME280;14306;49.942;11.570;2022-11-06T06:07:33;97834.47;;;4.68;93.86
1371;BME280;14306;49.942;11.570;2022-11-06T06:09:59;97841.84;;;4.83;93.97
1371;BME280;14306;49.942;11.570;2022-11-06T06:12:24;97842.09;;;4.81;94.99
1371;BME280;14306;49.942;11.570;2022-11-06T06:14:53;97842.94;;;4.87;94.76
1371;BME280;14306;49.942;11.570;2022-11-06T06:17:20;97830.19;;;5.04;94.52
1371;BME280;14306;49.942;11.570;2022-11-06T06:19:46;97830.63;;;5.32;93.26
1371;BME280;14306;49.942;11.570;2022-11-06T06:22:11;97838.16;;;5.30;93.18
1371;BME280;14306;49.942;11.570;2022-11-06T06:24:37;97826.59;;;5.30;93.62
1371;BME280;14306;49.942;11.570;2022-11-06T06:27:03;97824.66;;;5.20;94.88
1371;BME280;14306;49.942;11.570;2022-11-06T06:29:28;97828.19;;;5.31;94.77
1371;BME280;14306;49.942;11.570;2022-11-06T06:31:53;97824.75;;;5.35;95.09
1371;BME280;14306;49.942;11.570;2022-11-06T06:34:19;97835.75;;;5.39;95.36
1371;BME280;14306;49.942;11.570;2022-11-06T06:36:48;97836.91;;;5.48;96.16
1371;BME280;14306;49.942;11.570;2022-11-06T06:39:14;97839.38;;;5.64;96.28
1371;BME280;14306;49.942;11.570;2022-11-06T06:41:40;97840.88;;;5.82;95.99
1371;BME280;14306;49.942;11.570;2022-11-06T06:44:05;97845.31;;;5.66;95.96
1371;BME280;14306;49.942;11.570;2022-11-06T06:46:30;97857.22;;;5.80;95.74
1371;BME280;14306;49.942;11.570;2022-11-06T06:48:56;97863.22;;;6.02;96.14
1371;BME280;14306;49.942;11.570;2022-11-06T06:51:21;97867.75;;;5.87;96.09
1371;BME280;14306;49.942;11.570;2022-11-06T06:53:46;97869.09;;;5.94;96.86
1371;BME280;14306;49.942;11.570;2022-11-06T06:56:12;97863.72;;;5.89;97.27
1371;BME280;14306;49.942;11.570;2022-11-06T06:58:37;97865.03;;;5.82;96.75
1371;BME280;14306;49.942;11.570;2022-11-06T07:01:04;97864.28;;;5.96;96.49
1371;BME280;14306;49.942;11.570;2022-11-06T07:03:30;97864.63;;;6.15;96.28
1371;BME280;14306;49.942;11.570;2022-11-06T07:05:57;97863.78;;;6.04;96.82
1371;BME280;14306;49.942;11.570;2022-11-06T07:08:24;97869.47;;;6.18;96.58
1371;BME280;14306;49.942;11.570;2022-11-06T07:10:50;97866.56;;;6.39;96.17
1371;BME280;14306;49.942;11.570;2022-11-06T07:13:15;97864.66;;;6.35;96.48
1371;BME280;14306;49.942;11.570;2022-11-06T07:15:41;97874.69;;;6.64;95.87
1371;BME280;14306;49.942;11.570;2022-11-06T07:18:06;97872.03;;;6.79;96.31
1371;BME280;14306;49.942;11.570;2022-11-06T07:20:32;97881.47;;;6.97;95.95
1371;BME280;14306;49.942;11.570;2022-11-06T07:22:58;97888.16;;;7.04;94.60
1371;BME280;14306;49.942;11.570;2022-11-06T07:25:24;97888.97;;;7.25;95.29
1371;BME280;14306;49.942;11.570;2022-11-06T07:27:49;97893.53;;;7.39;94.07
1371;BME280;14306;49.942;11.570;2022-11-06T07:30:15;97908.66;;;7.25;94.12
1371;BME280;14306;49.942;11.570;2022-11-06T07:32:41;97906.22;;;7.24;93.31
1371;BME280;14306;49.942;11.570;2022-11-06T07:35:07;97909.72;;;7.24;92.84
1371;BME280;14306;49.942;11.570;2022-11-06T07:37:32;97908.66;;;7.25;93.52
1371;BME280;14306;49.942;11.570;2022-11-06T07:39:58;97904.06;;;7.16;93.82
1371;BME280;14306;49.942;11.570;2022-11-06T07:42:23;97891.13;;;7.23;93.98
1371;BME280;14306;49.942;11.570;2022-11-06T07:44:48;97879.00;;;7.40;93.62
1371;BME280;14306;49.942;11.570;2022-11-06T07:47:18;97872.25;;;7.48;93.73
1371;BME280;14306;49.942;11.570;2022-11-06T07:49:43;97880.91;;;7.15;94.57
1371;BME280;14306;49.942;11.570;2022-11-06T07:52:09;97878.50;;;7.03;94.01
1371;BME280;14306;49.942;11.570;2022-11-06T07:54:34;97876.31;;;6.90;94.68
1371;BME280;14306;49.942;11.570;2022-11-06T07:57:00;97870.66;;;7.07;94.15
1371;BME280;14306;49.942;11.570;2022-11-06T07:59:25;97852.31;;;7.44;93.80
1371;BME280;14306;49.942;11.570;2022-11-06T08:01:50;97853.84;;;7.75;94.07
1371;BME280;14306;49.942;11.570;2022-11-06T08:04:16;97852.34;;;8.18;92.58
1371;BME280;14306;49.942;11.570;2022-11-06T08:06:41;97858.94;;;7.81;92.89
1371;BME280;14306;49.942;11.570;2022-11-06T08:09:07;97852.34;;;8.18;93.30
1371;BME280;14306;49.942;11.570;2022-11-06T08:11:32;97846.97;;;7.14;93.74
1371;BME280;14306;49.942;11.570;2022-11-06T08:14:01;97844.81;;;7.16;94.02
1371;BME280;14306;49.942;11.570;2022-11-06T08:16:27;97833.97;;;7.56;94.42
1371;BME280;14306;49.942;11.570;2022-11-06T08:18:53;97838.56;;;7.50;94.49
1371;BME280;14306;49.942;11.570;2022-11-06T08:21:18;97831.25;;;7.56;93.30
1371;BME280;14306;49.942;11.570;2022-11-06T08:23:44;97838.28;;;7.52;93.99
1371;BME280;14306;49.942;11.570;2022-11-06T08:26:10;97840.41;;;7.60;92.94
1371;BME280;14306;49.942;11.570;2022-11-06T08:28:36;97834.00;;;7.41;93.51
1371;BME280;14306;49.942;11.570;2022-11-06T08:31:05;97826.44;;;7.38;93.44
1371;BME280;14306;49.942;11.570;2022-11-06T08:33:32;97826.72;;;7.46;92.96
1371;BME280;14306;49.942;11.570;2022-11-06T08:36:02;97826.34;;;7.78;92.79
1371;BME280;14306;49.942;11.570;2022-11-06T08:38:28;97823.44;;;8.18;91.95
1371;BME280;14306;49.942;11.570;2022-11-06T08:40:54;97820.69;;;8.33;90.28
1371;BME280;14306;49.942;11.570;2022-11-06T08:43:19;97816.88;;;7.90;92.45
1371;BME280;14306;49.942;11.570;2022-11-06T08:45:45;97816.69;;;7.57;91.96
1371;BME280;14306;49.942;11.570;2022-11-06T08:48:10;97815.13;;;7.41;93.36
1371;BME280;14306;49.942;11.570;2022-11-06T08:50:37;97801.06;;;7.59;91.76
1371;BME280;14306;49.942;11.570;2022-11-06T08:53:03;97789.75;;;7.62;92.23
1371;BME280;14306;49.942;11.570;2022-11-06T08:55:31;97782.91;;;7.84;91.03
1371;BME280;14306;49.942;11.570;2022-11-06T08:57:56;97769.78;;;7.63;91.29
1371;BME280;14306;49.942;11.570;2022-11-06T09:00:22;97789.00;;;7.41;90.18
1371;BME280;14306;49.942;11.570;2022-11-06T09:02:48;97777.47;;;7.31;91.01
1371;BME280;14306;49.942;11.570;2022-11-06T09:05:13;97778.19;;;7.51;90.55
1371;BME280;14306;49.942;11.570;2022-11-06T09:07:39;97779.94;;;7.86;89.89
1371;BME280;14306;49.942;11.570;2022-11-06T09:10:05;97770.72;;;7.97;88.75
1371;BME280;14306;49.942;11.570;2022-11-06T09:12:30;97782.25;;;8.07;88.99
1371;BME280;14306;49.942;11.570;2022-11-06T09:14:56;97781.53;;;7.87;86.50
1371;BME280;14306;49.942;11.570;2022-11-06T09:17:21;97767.75;;;7.98;87.85
1371;BME280;14306;49.942;11.570;2022-11-06T09:19:52;97774.03;;;7.79;87.18
1371;BME280;14306;49.942;11.570;2022-11-06T09:22:18;97782.34;;;7.87;88.08
1371;BME280;14306;49.942;11.570;2022-11-06T09:24:44;97776.72;;;7.79;87.55
1371;BME280;14306;49.942;11.570;2022-11-06T09:27:10;97773.66;;;8.00;87.99
1371;BME280;14306;49.942;11.570;2022-11-06T09:29:35;97774.31;;;7.82;87.47
1371;BME280;14306;49.942;11.570;2022-11-06T09:32:05;97763.59;;;8.11;86.40
1371;BME280;14306;49.942;11.570;2022-11-06T09:34:30;97760.22;;;8.39;85.37
1371;BME280;14306;49.942;11.570;2022-11-06T09:36:56;97770.25;;;8.34;84.86
1371;BME280;14306;49.942;11.570;2022-11-06T09:39:21;97769.31;;;8.09;85.35
1371;BME280;14306;49.942;11.570;2022-11-06T09:41:54;97755.47;;;8.21;85.34
1371;BME280;14306;49.942;11.570;2022-11-06T09:45:38;97747.69;;;8.82;83.47
1371;BME280;14306;49.942;11.570;2022-11-06T09:47:36;97753.50;;;8.37;84.60
1371;BME280;14306;49.942;11.570;2022-11-06T09:50:05;97745.00;;;8.82;84.26
1371;BME280;14306;49.942;11.570;2022-11-06T09:52:52;97748.16;;;8.94;82.18
1371;BME280;14306;49.942;11.570;2022-11-06T09:55:39;97756.97;;;9.04;83.00
1371;BME280;14306;49.942;11.570;2022-11-06T09:58:30;97756.00;;;8.90;83.29
1371;BME280;14306;49.942;11.570;2022-11-06T10:01:04;97759.81;;;8.89;80.73
1371;BME280;14306;49.942;11.570;2022-11-06T10:06:13;97753.69;;;9.31;81.12
1371;BME280;14306;49.942;11.570;2022-11-06T10:08:40;97737.09;;;8.90;81.10
1371;BME280;14306;49.942;11.570;2022-11-06T10:16:34;97748.38;;;9.91;78.13
1371;BME280;14306;49.942;11.570;2022-11-06T10:19:15;97741.34;;;9.90;77.28
1371;BME280;14306;49.942;11.570;2022-11-06T10:21:47;97740.00;;;9.69;79.46
1371;BME280;14306;49.942;11.570;2022-11-06T10:24:20;97733.59;;;9.60;79.70
1371;BME280;14306;49.942;11.570;2022-11-06T10:26:51;97726.34;;;8.85;81.52
1371;BME280;14306;49.942;11.570;2022-11-06T10:29:39;97731.97;;;8.89;80.45
1371;BME280;14306;49.942;11.570;2022-11-06T10:37:50;97715.28;;;8.53;82.50
1371;BME280;14306;49.942;11.570;2022-11-06T10:40:24;97719.78;;;8.91;80.67
1371;BME280;14306;49.942;11.570;2022-11-06T10:43:07;97708.72;;;8.93;81.08
1371;BME280;14306;49.942;11.570;2022-11-06T10:45:39;97707.09;;;8.92;80.71
1371;BME280;14306;49.942;11.570;2022-11-06T10:48:28;97719.19;;;9.46;79.30
1371;BME280;14306;49.942;11.570;2022-11-06T10:54:34;97696.91;;;9.12;80.20
1371;BME280;14306;49.942;11.570;2022-11-06T10:59:30;97694.94;;;8.94;81.57
1371;BME280;14306;49.942;11.570;2022-11-06T11:01:56;97690.94;;;9.15;81.71
1371;BME280;14306;49.942;11.570;2022-11-06T11:04:21;97685.31;;;8.83;81.14
1371;BME280;14306;49.942;11.570;2022-11-06T11:06:47;97677.69;;;9.14;81.09
1371;BME280;14306;49.942;11.570;2022-11-06T11:11:50;97660.34;;;8.96;81.28
1371;BME280;14306;49.942;11.570;2022-11-06T11:14:23;97649.13;;;9.08;82.13
1371;BME280;14306;49.942;11.570;2022-11-06T11:16:48;97643.50;;;9.04;81.66
1371;BME280;14306;49.942;11.570;2022-11-06T11:19:33;97646.88;;;9.15;81.28
1371;BME280;14306;49.942;11.570;2022-11-06T11:22:02;97628.06;;;9.47;81.41
1371;BME280;14306;49.942;11.570;2022-11-06T11:24:28;97623.53;;;9.24;81.43
1371;BME280;14306;49.942;11.570;2022-11-06T11:27:04;97609.59;;;9.35;80.90
1371;BME280;14306;49.942;11.570;2022-11-06T11:29:48;97610.81;;;9.06;82.08
1371;BME280;14306;49.942;11.570;2022-11-06T11:32:16;97612.25;;;8.75;81.91
1371;BME280;14306;49.942;11.570;2022-11-06T11:34:45;97607.22;;;9.10;83.07
1371;BME280;14306;49.942;11.570;2022-11-06T11:37:31;97615.00;;;9.17;81.15
1371;BME280;14306;49.942;11.570;2022-11-06T11:40:19;97619.09;;;9.70;79.32
1371;BME280;14306;49.942;11.570;2022-11-06T11:42:48;97607.72;;;9.54;79.59
1371;BME280;14306;49.942;11.570;2022-11-06T11:45:18;97619.47;;;9.45;79.77
1371;BME280;14306;49.942;11.570;2022-11-06T11:47:47;97619.56;;;9.40;80.71
1371;BME280;14306;49.942;11.570;2022-11-06T11:50:24;97611.63;;;9.99;79.10
1371;BME280;14306;49.942;11.570;2022-11-06T11:52:53;97611.00;;;10.07;77.84
1371;BME280;14306;49.942;11.570;2022-11-06T11:55:23;97611.72;;;9.75;78.75
1371;BME280;14306;49.942;11.570;2022-11-06T11:57:52;97598.69;;;9.96;77.56
1371;BME280;14306;49.942;11.570;2022-11-06T12:00:20;97581.84;;;9.67;78.46
1371;BME280;14306;49.942;11.570;2022-11-06T12:03:04;97572.66;;;9.49;78.97
1371;BME280;14306;49.942;11.570;2022-11-06T12:05:37;97563.22;;;10.16;77.81
1371;BME280;14306;49.942;11.570;2022-11-06T12:08:05;97581.03;;;10.49;76.33
1371;BME280;14306;49.942;11.570;2022-11-06T12:10:38;97575.47;;;10.40;76.14
1371;BME280;14306;49.942;11.570;2022-11-06T12:13:13;97570.78;;;11.27;74.59
1371;BME280;14306;49.942;11.570;2022-11-06T12:18:30;97559.34;;;10.35;74.11
1371;BME280;14306;49.942;11.570;2022-11-06T12:28:55;97548.44;;;11.08;73.00
1371;BME280;14306;49.942;11.570;2022-11-06T12:31:41;97535.03;;;11.25;71.90
1371;BME280;14306;49.942;11.570;2022-11-06T12:34:18;97530.63;;;11.15;71.28
1371;BME280;14306;49.942;11.570;2022-11-06T12:37:03;97522.66;;;10.29;74.00
1371;BME280;14306;49.942;11.570;2022-11-06T12:39:38;97521.69;;;10.07;74.17
1371;BME280;14306;49.942;11.570;2022-11-06T12:42:06;97518.56;;;9.68;75.15
1371;BME280;14306;49.942;11.570;2022-11-06T12:44:35;97506.00;;;9.90;74.92
1371;BME280;14306;49.942;11.570;2022-11-06T12:55:22;97497.16;;;9.53;76.00
1371;BME280;14306;49.942;11.570;2022-11-06T12:58:01;97508.06;;;9.29;76.64
1371;BME280;14306;49.942;11.570;2022-11-06T13:06:13;97488.66;;;9.78;74.89
1371;BME280;14306;49.942;11.570;2022-11-06T13:09:03;97495.03;;;9.68;74.57
1371;BME280;14306;49.942;11.570;2022-11-06T13:16:55;97495.19;;;10.22;72.81
1371;BME280;14306;49.942;11.570;2022-11-06T13:22:35;97475.16;;;9.91;73.87
1371;BME280;14306;49.942;11.570;2022-11-06T13:30:35;97450.44;;;10.52;71.77
1371;BME280;14306;49.942;11.570;2022-11-06T13:35:31;97446.03;;;10.42;72.13
1371;BME280;14306;49.942;11.570;2022-11-06T13:37:57;97440.56;;;10.83;71.46
1371;BME280;14306;49.942;11.570;2022-11-06T13:40:31;97440.31;;;10.71;71.34
1371;BME280;14306;49.942;11.570;2022-11-06T13:43:06;97444.13;;;10.70;71.20
1371;BME280;14306;49.942;11.570;2022-11-06T13:45:44;97439.03;;;10.41;72.45
1371;BME280;14306;49.942;11.570;2022-11-06T13:48:39;97443.34;;;11.05;70.45
1371;BME280;14306;49.942;11.570;2022-11-06T13:51:31;97433.13;;;10.88;70.26
1371;BME280;14306;49.942;11.570;2022-11-06T13:57:18;97428.06;;;11.53;69.80
1371;BME280;14306;49.942;11.570;2022-11-06T14:08:17;97400.84;;;10.78;69.87
1371;BME280;14306;49.942;11.570;2022-11-06T14:10:49;97397.38;;;10.64;70.96
1371;BME280;14306;49.942;11.570;2022-11-06T14:13:16;97397.00;;;10.57;71.03
1371;BME280;14306;49.942;11.570;2022-11-06T14:15:45;97393.00;;;10.41;71.57
1371;BME280;14306;49.942;11.570;2022-11-06T14:18:20;97386.50;;;10.15;72.91
1371;BME280;14306;49.942;11.570;2022-11-06T14:20:47;97377.50;;;10.06;73.39
1371;BME280;14306;49.942;11.570;2022-11-06T14:26:08;97357.31;;;9.85;74.21
1371;BME280;14306;49.942;11.570;2022-11-06T14:28:41;97354.81;;;9.75;74.25
1371;BME280;14306;49.942;11.570;2022-11-06T14:31:09;97342.97;;;9.71;74.59
1371;BME280;14306;49.942;11.570;2022-11-06T14:33:58;97352.31;;;9.65;75.34
1371;BME280;14306;49.942;11.570;2022-11-06T14:38:49;97361.91;;;9.85;74.80
1371;BME280;14306;49.942;11.570;2022-11-06T14:44:27;97348.63;;;9.88;74.66
1371;BME280;14306;49.942;11.570;2022-11-06T14:47:00;97351.44;;;9.83;75.29
1371;BME280;14306;49.942;11.570;2022-11-06T14:49:35;97346.03;;;9.38;76.82
1371;BME280;14306;49.942;11.570;2022-11-06T14:52:05;97354.38;;;9.41;77.21
1371;BME280;14306;49.942;11.570;2022-11-06T14:54:35;97350.13;;;9.22;77.70
1371;BME280;14306;49.942;11.570;2022-11-06T14:57:02;97342.84;;;9.22;77.24
1371;BME280;14306;49.942;11.570;2022-11-06T14:59:30;97338.25;;;9.04;78.28
1371;BME280;14306;49.942;11.570;2022-11-06T15:02:14;97340.72;;;9.19;77.75
1371;BME280;14306;49.942;11.570;2022-11-06T15:04:55;97330.97;;;9.18;77.60
1371;BME280;14306;49.942;11.570;2022-11-06T15:11:05;97322.34;;;9.03;78.44
1371;BME280;14306;49.942;11.570;2022-11-06T15:13:24;97322.03;;;8.91;78.71
1371;BME280;14306;49.942;11.570;2022-11-06T15:16:00;97323.28;;;8.80;79.47
1371;BME280;14306;49.942;11.570;2022-11-06T15:18:28;97322.25;;;8.76;79.77
1371;BME280;14306;49.942;11.570;2022-11-06T15:21:01;97308.03;;;8.70;79.63
1371;BME280;14306;49.942;11.570;2022-11-06T15:26:35;97303.53;;;8.47;81.46
1371;BME280;14306;49.942;11.570;2022-11-06T15:31:42;97298.88;;;8.53;81.27
1371;BME280;14306;49.942;11.570;2022-11-06T15:34:21;97299.09;;;8.38;82.03